Time;durP1;ratioP1;P1;durP2;ratioP2;P2;SDS_P1;SDS_P2;PMS_P1;PMS_P2;Temp;Humidity;BMP_temperature;BMP_pressure;BME280_temperature;BME280_humidity;BME280_pressure;Samples;Min_cycle;Max_cycle;Signal;HPM_P1;HPM_P2
2021/10/29 00:00:12;;;;;;;20.77;8.25;;;;;;;;;;5049584;28;20029;-63
2021/10/29 00:02:39;;;;;;;21.65;7.72;;;;;;;;;;5061146;28;20029;-63
2021/10/29 00:05:05;;;;;;;18.38;7.88;;;;;;;;;;5045301;28;20534;-63
2021/10/29 00:07:31;;;;;;;18.80;7.88;;;;;;;;;;5047218;28;20029;-63
2021/10/29 00:09:58;;;;;;;17.95;8.05;;;;;;;;;;5045923;28;20247;-63
2021/10/29 00:12:24;;;;;;;23.33;8.20;;;;;;;;;;5048161;28;20109;-63
2021/10/29 00:14:51;;;;;;;16.02;7.63;;;;;;;;;;5050644;28;20432;-63
2021/10/29 00:17:17;;;;;;;19.95;8.55;;;;;;;;;;5047433;28;20021;-63
2021/10/29 00:19:43;;;;;;;15.52;7.70;;;;;;;;;;5047509;28;20067;-63
2021/10/29 00:22:09;;;;;;;16.95;7.65;;;;;;;;;;5047353;28;20029;-63
2021/10/29 00:24:36;;;;;;;15.57;7.70;;;;;;;;;;5047037;28;20037;-63
2021/10/29 00:27:02;;;;;;;17.77;7.93;;;;;;;;;;5050212;28;20485;-63
2021/10/29 00:29:28;;;;;;;16.98;7.25;;;;;;;;;;5048556;28;20047;-63
2021/10/29 00:31:54;;;;;;;16.17;7.28;;;;;;;;;;5046919;28;20021;-63
2021/10/29 00:34:20;;;;;;;19.75;7.50;;;;;;;;;;5046898;28;20103;-63
2021/10/29 00:36:46;;;;;;;16.27;6.60;;;;;;;;;;5047256;28;20505;-63
2021/10/29 00:39:12;;;;;;;20.70;7.38;;;;;;;;;;5049595;28;20037;-63
2021/10/29 00:41:39;;;;;;;21.75;7.32;;;;;;;;;;5048785;28;20396;-63
2021/10/29 00:44:05;;;;;;;13.55;6.10;;;;;;;;;;5047155;28;20098;-63
2021/10/29 00:46:32;;;;;;;18.48;6.55;;;;;;;;;;5047963;28;20033;-63
2021/10/29 00:48:58;;;;;;;16.20;6.28;;;;;;;;;;5047426;28;20037;-63
2021/10/29 00:51:24;;;;;;;10.77;5.47;;;;;;;;;;5048291;28;20029;-63
2021/10/29 00:53:51;;;;;;;16.33;6.53;;;;;;;;;;5049888;28;20025;-63
2021/10/29 00:56:17;;;;;;;14.38;6.25;;;;;;;;;;5048332;28;20101;-63
2021/10/29 00:58:43;;;;;;;18.35;8.02;;;;;;;;;;5051247;28;20071;-63
2021/10/29 01:01:09;;;;;;;16.13;6.50;;;;;;;;;;5050664;28;20032;-63
2021/10/29 01:03:39;;;;;;;18.38;6.38;;;;;;;;;;5052462;28;20389;-63
2021/10/29 01:06:05;;;;;;;18.15;6.68;;;;;;;;;;5052745;28;20082;-63
2021/10/29 01:08:32;;;;;;;14.35;6.53;;;;;;;;;;5052193;28;20557;-63
2021/10/29 01:10:58;;;;;;;19.23;6.63;;;;;;;;;;5050888;28;20032;-63
2021/10/29 01:13:24;;;;;;;13.68;6.40;;;;;;;;;;5050994;28;20051;-63
2021/10/29 01:15:50;;;;;;;16.48;6.20;;;;;;;;;;5048839;28;20048;-63
2021/10/29 01:18:16;;;;;;;15.30;6.05;;;;;;;;;;5052316;28;20064;-63
2021/10/29 01:20:42;;;;;;;15.20;6.68;;;;;;;;;;5052747;28;20083;-63
2021/10/29 01:23:08;;;;;;;13.70;5.78;;;;;;;;;;5050427;28;20102;-63
2021/10/29 01:25:34;;;;;;;17.60;7.18;;;;;;;;;;5049659;28;20064;-63
2021/10/29 01:28:00;;;;;;;18.58;5.80;;;;;;;;;;5050180;28;20032;-63
2021/10/29 01:30:26;;;;;;;18.40;7.35;;;;;;;;;;5034959;28;20470;-63
2021/10/29 01:32:52;;;;;;;20.08;6.00;;;;;;;;;;5053487;28;20045;-63
2021/10/29 01:35:18;;;;;;;12.18;5.68;;;;;;;;;;5050497;28;20036;-63
2021/10/29 01:37:44;;;;;;;15.10;5.82;;;;;;;;;;5049627;28;20021;-63
2021/10/29 01:40:13;;;;;;;16.00;5.57;;;;;;;;;;5050089;28;20083;-63
2021/10/29 01:42:39;;;;;;;12.07;5.38;;;;;;;;;;5050050;28;20026;-63
2021/10/29 01:45:06;;;;;;;13.63;5.47;;;;;;;;;;5052455;28;20033;-63
2021/10/29 01:47:33;;;;;;;17.13;6.35;;;;;;;;;;5051135;28;20025;-63
2021/10/29 01:49:59;;;;;;;12.48;5.38;;;;;;;;;;5050373;28;20054;-63
2021/10/29 01:52:27;;;;;;;16.40;5.32;;;;;;;;;;5049622;28;20036;-63
2021/10/29 01:54:53;;;;;;;;;;;;;;;;;;5050644;28;20020;-64
2021/10/29 01:57:19;;;;;;;11.13;4.70;;;;;;;;;;5051244;28;20380;-63
2021/10/29 01:59:45;;;;;;;10.27;4.10;;;;;;;;;;5052297;28;20499;-64
2021/10/29 02:02:11;;;;;;;13.65;5.25;;;;;;;;;;5049843;28;20026;-63
2021/10/29 02:04:37;;;;;;;11.13;4.95;;;;;;;;;;5049193;28;20047;-64
2021/10/29 02:07:03;;;;;;;10.20;4.28;;;;;;;;;;5049565;28;20094;-64
2021/10/29 02:09:29;;;;;;;12.13;4.80;;;;;;;;;;5048585;28;20029;-64
2021/10/29 02:11:55;;;;;;;11.90;4.22;;;;;;;;;;5053319;28;20084;-63
2021/10/29 02:14:21;;;;;;;12.52;4.82;;;;;;;;;;5049482;28;20125;-64
2021/10/29 02:16:47;;;;;;;12.82;4.30;;;;;;;;;;5049291;28;20489;-64
2021/10/29 02:19:13;;;;;;;11.38;3.70;;;;;;;;;;5049192;28;20036;-63
2021/10/29 02:21:39;;;;;;;13.55;5.32;;;;;;;;;;5049625;28;20060;-63
2021/10/29 02:24:05;;;;;;;8.85;4.05;;;;;;;;;;5059621;28;20496;-64
2021/10/29 02:26:33;;;;;;;14.73;4.65;;;;;;;;;;5050256;28;20035;-63
2021/10/29 02:28:59;;;;;;;10.90;5.07;;;;;;;;;;5048794;28;20108;-63
2021/10/29 02:31:26;;;;;;;15.73;5.53;;;;;;;;;;5049547;28;20101;-64
2021/10/29 02:33:52;;;;;;;10.82;4.93;;;;;;;;;;5049263;28;20037;-64
2021/10/29 02:36:19;;;;;;;11.02;4.57;;;;;;;;;;5049102;28;20044;-64
2021/10/29 02:38:45;;;;;;;12.48;4.65;;;;;;;;;;5051464;28;20119;-64
2021/10/29 02:41:11;;;;;;;14.88;4.25;;;;;;;;;;5047033;28;20125;-64
2021/10/29 02:43:36;;;;;;;12.25;5.25;;;;;;;;;;5048129;28;20047;-63
2021/10/29 02:46:03;;;;;;;17.55;4.85;;;;;;;;;;5049106;28;20025;-64
2021/10/29 02:48:29;;;;;;;16.15;5.10;;;;;;;;;;5048620;28;20455;-63
2021/10/29 02:50:55;;;;;;;10.70;4.38;;;;;;;;;;5052583;28;20477;-63
2021/10/29 02:53:21;;;;;;;11.57;3.63;;;;;;;;;;5049040;28;20487;-63
2021/10/29 02:55:47;;;;;;;14.15;4.28;;;;;;;;;;5048673;28;20037;-64
2021/10/29 02:58:13;;;;;;;11.05;3.80;;;;;;;;;;5048123;28;20480;-64
2021/10/29 03:00:39;;;;;;;13.82;4.47;;;;;;;;;;5048884;28;20029;-63
2021/10/29 03:03:05;;;;;;;12.07;4.55;;;;;;;;;;5050915;28;20481;-63
2021/10/29 03:05:31;;;;;;;13.73;4.63;;;;;;;;;;5051107;28;20104;-63
2021/10/29 03:07:57;;;;;;;12.23;5.10;;;;;;;;;;5048703;28;20769;-64
2021/10/29 03:10:23;;;;;;;11.02;4.63;;;;;;;;;;5048369;28;20104;-64
2021/10/29 03:12:49;;;;;;;12.95;4.97;;;;;;;;;;5047886;28;20108;-64
2021/10/29 03:15:15;;;;;;;14.02;4.75;;;;;;;;;;5050367;28;20538;-67
2021/10/29 03:17:41;;;;;;;17.92;4.90;;;;;;;;;;5048686;28;20373;-67
2021/10/29 03:20:08;;;;;;;17.98;4.68;;;;;;;;;;5047557;28;20032;-67
2021/10/29 03:22:34;;;;;;;10.50;4.13;;;;;;;;;;5047982;28;20029;-67
2021/10/29 03:25:00;;;;;;;9.73;3.53;;;;;;;;;;5050038;28;20037;-67
2021/10/29 03:27:26;;;;;;;13.82;4.40;;;;;;;;;;5050033;28;20037;-67
2021/10/29 03:29:52;;;;;;;10.77;3.75;;;;;;;;;;5050751;28;20037;-67
2021/10/29 03:32:18;;;;;;;9.38;3.92;;;;;;;;;;5049130;28;20055;-66
2021/10/29 03:34:45;;;;;;;10.57;3.78;;;;;;;;;;5050013;28;20067;-67
2021/10/29 03:42:47;;;;;;;9.65;3.75;;;;;;;;;;5048002;28;20029;-67
2021/10/29 03:45:15;;;;;;;10.18;3.83;;;;;;;;;;5050056;28;20032;-67
2021/10/29 03:47:49;;;;;;;12.93;4.00;;;;;;;;;;5049779;28;20021;-67
2021/10/29 03:52:50;;;;;;;17.08;4.75;;;;;;;;;;5048039;28;20029;-67
2021/10/29 03:55:17;;;;;;;11.18;3.70;;;;;;;;;;5046684;28;20036;-67
2021/10/29 03:57:43;;;;;;;13.40;3.92;;;;;;;;;;5046416;28;20053;-67
2021/10/29 04:00:09;;;;;;;9.55;3.30;;;;;;;;;;5050559;28;20025;-68
2021/10/29 04:02:35;;;;;;;10.63;3.35;;;;;;;;;;5048996;28;20028;-68
2021/10/29 04:05:01;;;;;;;13.55;4.20;;;;;;;;;;5046999;28;20436;-68
2021/10/29 04:07:27;;;;;;;18.90;5.20;;;;;;;;;;5047697;28;20029;-66
2021/10/29 04:09:53;;;;;;;10.07;3.38;;;;;;;;;;5045949;28;20025;-68
2021/10/29 04:12:19;;;;;;;14.07;4.60;;;;;;;;;;5049176;28;20049;-68
2021/10/29 04:14:46;;;;;;;14.38;3.72;;;;;;;;;;5048167;28;20025;-68
2021/10/29 04:17:13;;;;;;;9.20;4.03;;;;;;;;;;5047576;28;20389;-67
2021/10/29 04:19:39;;;;;;;11.88;4.18;;;;;;;;;;5047181;28;20096;-67
2021/10/29 04:22:04;;;;;;;11.73;4.60;;;;;;;;;;5047670;28;20115;-68
2021/10/29 04:24:30;;;;;;;13.73;3.97;;;;;;;;;;5047099;28;20404;-68
2021/10/29 04:26:59;;;;;;;13.32;4.00;;;;;;;;;;5050805;28;20029;-67
2021/10/29 04:29:27;;;;;;;;;;;;;;;;;;5049942;28;20060;-66
2021/10/29 04:31:53;;;;;;;9.32;3.47;;;;;;;;;;5051205;28;19908;-67
2021/10/29 04:34:21;;;;;;;10.45;3.97;;;;;;;;;;5051492;28;20079;-67
2021/10/29 04:36:47;;;;;;;18.90;4.82;;;;;;;;;;5051519;28;20036;-67
2021/10/29 04:39:14;;;;;;;10.52;3.70;;;;;;;;;;5052204;28;20033;-66
2021/10/29 04:41:44;;;;;;;11.57;4.55;;;;;;;;;;5052701;28;20032;-67
2021/10/29 04:44:10;;;;;;;9.23;3.55;;;;;;;;;;5051533;28;20041;-66
2021/10/29 04:46:36;;;;;;;11.13;3.95;;;;;;;;;;5051502;28;20033;-68
2021/10/29 04:49:02;;;;;;;8.48;4.35;;;;;;;;;;5051338;28;20032;-70
2021/10/29 04:51:28;;;;;;;13.30;4.55;;;;;;;;;;5051139;28;20499;-71
2021/10/29 04:53:55;;;;;;;16.27;5.88;;;;;;;;;;5049872;28;20040;-70
2021/10/29 04:56:22;;;;;;;13.45;4.75;;;;;;;;;;5051214;28;20444;-70
2021/10/29 04:58:48;;;;;;;12.05;4.28;;;;;;;;;;5050753;28;20025;-71
2021/10/29 05:01:14;;;;;;;11.05;4.90;;;;;;;;;;5050912;28;20040;-70
2021/10/29 05:03:40;;;;;;;10.63;4.18;;;;;;;;;;5050788;28;20046;-71
2021/10/29 05:06:06;;;;;;;14.80;4.50;;;;;;;;;;5052810;28;20531;-68
2021/10/29 05:08:32;;;;;;;14.10;4.15;;;;;;;;;;5051760;28;20102;-68
2021/10/29 05:10:58;;;;;;;14.15;4.20;;;;;;;;;;5050667;28;20025;-70
2021/10/29 05:13:24;;;;;;;11.45;4.25;;;;;;;;;;5050943;28;20029;-70
2021/10/29 05:15:50;;;;;;;11.30;4.47;;;;;;;;;;5050580;28;20056;-70
2021/10/29 05:18:18;;;;;;;15.60;5.65;;;;;;;;;;5051777;28;20087;-67
2021/10/29 05:20:44;;;;;;;13.38;4.75;;;;;;;;;;5052739;28;20032;-67
2021/10/29 05:23:11;;;;;;;18.00;5.07;;;;;;;;;;5050491;28;20516;-67
2021/10/29 05:25:37;;;;;;;11.32;4.43;;;;;;;;;;5050439;28;20094;-67
2021/10/29 05:28:03;;;;;;;10.40;4.07;;;;;;;;;;5050088;28;20060;-67
2021/10/29 05:30:29;;;;;;;12.88;4.53;;;;;;;;;;5050543;28;20043;-67
2021/10/29 05:32:55;;;;;;;9.70;4.80;;;;;;;;;;5053582;28;20141;-66
2021/10/29 05:35:21;;;;;;;14.20;5.18;;;;;;;;;;5050510;28;20044;-67
2021/10/29 05:37:47;;;;;;;10.80;4.13;;;;;;;;;;5049383;28;20171;-67
2021/10/29 05:40:13;;;;;;;13.18;5.10;;;;;;;;;;5049916;28;20562;-67
2021/10/29 05:42:39;;;;;;;12.48;4.80;;;;;;;;;;5049883;28;20124;-67
2021/10/29 05:45:08;;;;;;;21.98;4.70;;;;;;;;;;5052878;28;20032;-67
2021/10/29 05:47:34;;;;;;;;;;;;;;;;;;5053495;28;20070;-64
2021/10/29 05:50:00;;;;;;;15.60;5.15;;;;;;;;;;5049783;28;19912;-67
2021/10/29 05:52:28;;;;;;;20.75;6.63;;;;;;;;;;5049434;28;20393;-67
2021/10/29 05:57:20;;;;;;;16.17;5.82;;;;;;;;;;5050937;28;20132;-66
2021/10/29 05:59:47;;;;;;;12.95;5.13;;;;;;;;;;5052245;28;20380;-66
2021/10/29 06:02:12;;;;;;;16.75;5.70;;;;;;;;;;5049505;28;20075;-67
2021/10/29 06:04:39;;;;;;;14.32;5.00;;;;;;;;;;5049837;28;20037;-66
2021/10/29 06:07:05;;;;;;;14.05;4.35;;;;;;;;;;5049561;28;20064;-67
2021/10/29 06:09:31;;;;;;;14.25;5.43;;;;;;;;;;5049357;28;20107;-66
2021/10/29 06:11:58;;;;;;;15.13;6.07;;;;;;;;;;5052940;28;20040;-67
2021/10/29 06:14:26;;;;;;;13.75;4.75;;;;;;;;;;5050100;28;20059;-67
2021/10/29 06:16:52;;;;;;;13.63;6.03;;;;;;;;;;5049702;28;20047;-66
2021/10/29 06:19:18;;;;;;;16.98;6.57;;;;;;;;;;5049699;28;20033;-66
2021/10/29 06:21:55;;;;;;;12.32;6.07;;;;;;;;;;5048613;28;20033;-66
2021/10/29 06:24:21;;;;;;;11.35;5.68;;;;;;;;;;5050745;28;20091;-67
2021/10/29 06:28:08;;;;;;;13.18;5.10;;;;;;;;;;5052057;28;20032;-66
2021/10/29 06:29:34;;;;;;;11.75;4.93;;;;;;;;;;5052196;28;20041;-67
2021/10/29 06:32:00;;;;;;;13.20;5.53;;;;;;;;;;5049018;28;20029;-66
2021/10/29 06:34:26;;;;;;;12.60;5.72;;;;;;;;;;5048389;28;20048;-66
2021/10/29 06:36:52;;;;;;;11.80;4.40;;;;;;;;;;5048476;28;20045;-66
2021/10/29 06:39:20;;;;;;;13.63;5.95;;;;;;;;;;5050857;28;20037;-67
2021/10/29 06:41:46;;;;;;;13.57;5.72;;;;;;;;;;5051613;28;20473;-67
2021/10/29 07:40:19;;;;;;;11.93;4.47;;;;;;;;;;5047720;28;20048;-66
2021/10/29 07:45:17;;;;;;;8.00;3.92;;;;;;;;;;5050016;28;20033;-66
2021/10/29 07:47:43;;;;;;;11.60;3.83;;;;;;;;;;5049193;28;20025;-66
2021/10/29 07:50:10;;;;;;;7.30;3.90;;;;;;;;;;5048047;28;20064;-66
2021/10/29 07:52:37;;;;;;;8.05;3.58;;;;;;;;;;5047777;28;20021;-67
2021/10/29 07:55:04;;;;;;;7.72;3.75;;;;;;;;;;5047704;28;20047;-67
2021/10/29 07:57:30;;;;;;;7.75;3.65;;;;;;;;;;5047039;28;20083;-67
2021/10/29 07:59:57;;;;;;;8.30;3.42;;;;;;;;;;5058366;28;20541;-67
2021/10/29 08:02:23;;;;;;;12.68;5.68;;;;;;;;;;5047667;28;20037;-66
2021/10/29 08:04:49;;;;;;;9.68;4.55;;;;;;;;;;5047409;28;20400;-67
2021/10/29 08:07:16;;;;;;;12.00;5.20;;;;;;;;;;5047621;28;20029;-67
2021/10/29 08:09:43;;;;;;;11.60;6.15;;;;;;;;;;5047812;28;20047;-67
2021/10/29 08:12:09;;;;;;;9.75;5.95;;;;;;;;;;5049432;28;20078;-67
2021/10/29 08:14:36;;;;;;;8.95;5.07;;;;;;;;;;5048759;28;20546;-67
2021/10/29 08:17:02;;;;;;;11.48;5.30;;;;;;;;;;5047575;28;20036;-67
2021/10/29 08:19:33;;;;;;;10.93;4.70;;;;;;;;;;5047578;28;20037;-66
2021/10/29 08:22:04;;;;;;;10.25;4.75;;;;;;;;;;5048616;28;20024;-67
2021/10/29 08:24:31;;;;;;;9.70;4.55;;;;;;;;;;5031850;28;20116;-66
2021/10/29 08:26:57;;;;;;;7.78;4.38;;;;;;;;;;5050616;28;20028;-66
2021/10/29 08:29:24;;;;;;;7.63;4.32;;;;;;;;;;5050848;28;20032;-67
2021/10/29 08:31:51;;;;;;;7.65;3.90;;;;;;;;;;5051869;28;20492;-66
2021/10/29 08:34:18;;;;;;;11.60;4.80;;;;;;;;;;5046772;28;20136;-66
2021/10/29 08:36:45;;;;;;;8.07;4.15;;;;;;;;;;5047058;28;20056;-66
2021/10/29 08:39:13;;;;;;;7.80;3.67;;;;;;;;;;5049960;28;20091;-67
2021/10/29 08:41:40;;;;;;;9.77;4.07;;;;;;;;;;5048746;28;20683;-68
2021/10/29 08:44:06;;;;;;;11.20;4.37;;;;;;;;;;5046790;28;20049;-67
2021/10/29 08:46:33;;;;;;;6.88;3.45;;;;;;;;;;5047180;28;20124;-67
2021/10/29 08:49:00;;;;;;;7.03;3.15;;;;;;;;;;5046883;28;20083;-67
2021/10/29 08:51:27;;;;;;;12.98;2.95;;;;;;;;;;5047806;28;20025;-66
2021/10/29 08:53:55;;;;;;;7.18;3.30;;;;;;;;;;5050464;28;20052;-66
2021/10/29 08:56:21;;;;;;;;;;;;;;;;;;5047513;28;20033;-66
2021/10/29 08:59:08;;;;;;;8.98;3.05;;;;;;;;;;5046860;28;19992;-66
2021/10/29 09:01:48;;;;;;;5.85;2.75;;;;;;;;;;5048905;28;20052;-66
2021/10/29 09:04:15;;;;;;;5.03;1.98;;;;;;;;;;5045840;28;20465;-66
2021/10/29 09:06:57;;;;;;;6.32;1.95;;;;;;;;;;5046985;28;20029;-66
2021/10/29 09:16:10;;;;;;;5.40;2.50;;;;;;;;;;5046635;28;20051;-66
2021/10/29 09:31:27;;;;;;;5.10;1.95;;;;;;;;;;5050529;28;20031;-66
2021/10/29 09:33:55;;;;;;;6.75;1.80;;;;;;;;;;5049657;28;20064;-66
2021/10/29 09:36:26;;;;;;;6.95;2.38;;;;;;;;;;5051237;28;20495;-66
2021/10/29 09:39:01;;;;;;;5.43;1.90;;;;;;;;;;5053684;28;20068;-66
2021/10/29 09:41:27;;;;;;;8.68;2.20;;;;;;;;;;5051063;28;20098;-67
2021/10/29 09:43:59;;;;;;;4.20;2.10;;;;;;;;;;5049595;28;20037;-67
2021/10/29 09:46:42;;;;;;;7.28;2.25;;;;;;;;;;5049823;28;20472;-67
2021/10/29 09:49:16;;;;;;;6.88;2.20;;;;;;;;;;5050332;28;20392;-66
2021/10/29 09:52:05;;;;;;;5.80;2.60;;;;;;;;;;5049770;28;20020;-66
2021/10/29 09:54:38;;;;;;;11.07;2.45;;;;;;;;;;5034594;28;20036;-63
2021/10/29 09:57:05;;;;;;;8.38;2.75;;;;;;;;;;5052338;28;20092;-63
2021/10/29 09:59:31;;;;;;;6.85;2.90;;;;;;;;;;5052517;28;20100;-63
2021/10/29 10:01:57;;;;;;;7.13;2.45;;;;;;;;;;5049819;28;20421;-63
2021/10/29 10:04:24;;;;;;;5.90;2.42;;;;;;;;;;5049949;28;20025;-62
2021/10/29 10:06:50;;;;;;;5.97;2.45;;;;;;;;;;5048976;28;20071;-63
2021/10/29 10:09:17;;;;;;;6.93;2.60;;;;;;;;;;5051746;28;20483;-64
2021/10/29 10:11:44;;;;;;;6.40;2.38;;;;;;;;;;5051619;28;20037;-62
2021/10/29 10:14:11;;;;;;;6.35;2.55;;;;;;;;;;5049709;28;20029;-62
2021/10/29 10:16:41;;;;;;;6.25;2.40;;;;;;;;;;5049271;28;20021;-62
2021/10/29 10:19:08;;;;;;;4.65;2.50;;;;;;;;;;5049729;28;20099;-62
2021/10/29 10:21:40;;;;;;;8.50;2.80;;;;;;;;;;5049603;28;20091;-63
2021/10/29 10:24:12;;;;;;;6.35;2.50;;;;;;;;;;5052063;28;20036;-62
2021/10/29 10:40:15;;;;;;;4.63;2.20;;;;;;;;;;5048358;28;20021;-62
2021/10/29 10:49:11;;;;;;;7.03;2.53;;;;;;;;;;5031831;28;20025;-62
2021/10/29 10:51:51;;;;;;;6.20;2.40;;;;;;;;;;5034523;28;20017;-62
2021/10/29 10:54:31;;;;;;;8.45;2.85;;;;;;;;;;5050157;28;20060;-62
2021/10/29 11:10:14;;;;;;;8.00;2.25;;;;;;;;;;5048395;28;20059;-63
2021/10/29 11:12:40;;;;;;;5.38;1.95;;;;;;;;;;5048823;28;20021;-63
2021/10/29 11:15:27;;;;;;;6.15;2.72;;;;;;;;;;5050482;28;20116;-62
2021/10/29 11:17:59;;;;;;;6.10;1.88;;;;;;;;;;5051150;28;20037;-62
2021/10/29 11:20:41;;;;;;;8.57;2.15;;;;;;;;;;5050343;28;20561;-62
2021/10/29 11:23:07;;;;;;;7.10;1.92;;;;;;;;;;5048392;28;20021;-62
2021/10/29 11:25:53;;;;;;;4.65;1.85;;;;;;;;;;5047629;28;20028;-62
2021/10/29 11:28:22;;;;;;;7.50;2.13;;;;;;;;;;5047588;28;20025;-62
2021/10/29 11:30:47;;;;;;;5.80;2.13;;;;;;;;;;5053426;28;20108;-63
2021/10/29 11:33:15;;;;;;;9.43;2.78;;;;;;;;;;5050498;28;20124;-62
2021/10/29 11:35:41;;;;;;;5.00;1.90;;;;;;;;;;5049357;28;20078;-63
2021/10/29 11:38:08;;;;;;;7.78;1.90;;;;;;;;;;5048017;28;20070;-62
2021/10/29 11:40:35;;;;;;;10.15;2.33;;;;;;;;;;5047082;28;20036;-62
2021/10/29 11:43:02;;;;;;;5.13;2.10;;;;;;;;;;5046261;28;20120;-63
2021/10/29 11:45:33;;;;;;;10.32;2.65;;;;;;;;;;5031687;28;20499;-62
2021/10/29 11:47:59;;;;;;;7.93;2.72;;;;;;;;;;5050128;28;20028;-63
2021/10/29 11:50:25;;;;;;;5.32;2.60;;;;;;;;;;5047798;28;20036;-62
2021/10/29 11:52:51;;;;;;;7.18;2.30;;;;;;;;;;5047042;28;20024;-63
2021/10/29 11:55:36;;;;;;;7.75;2.28;;;;;;;;;;5046195;28;20040;-62
2021/10/29 11:58:12;;;;;;;9.80;3.40;;;;;;;;;;5047398;28;20028;-62
2021/10/29 12:00:52;;;;;;;5.75;2.22;;;;;;;;;;5035155;28;20488;-62
2021/10/29 12:08:37;;;;;;;7.53;2.50;;;;;;;;;;5048065;28;20033;-62
2021/10/29 12:11:05;;;;;;;6.88;2.70;;;;;;;;;;5047757;28;20013;-62
2021/10/29 12:13:33;;;;;;;5.95;3.13;;;;;;;;;;5046901;28;20024;-63
2021/10/29 12:15:59;;;;;;;11.13;2.83;;;;;;;;;;5047943;28;20108;-63
2021/10/29 12:18:32;;;;;;;9.80;3.22;;;;;;;;;;5047995;28;20053;-62
2021/10/29 12:20:58;;;;;;;8.52;3.00;;;;;;;;;;5046917;28;20079;-63
2021/10/29 12:23:27;;;;;;;7.68;2.97;;;;;;;;;;5047374;28;20036;-63
2021/10/29 12:28:26;;;;;;;9.07;3.08;;;;;;;;;;5046613;28;20025;-63
2021/10/29 12:47:34;;;;;;;6.65;2.92;;;;;;;;;;5046806;28;20037;-62
2021/10/29 12:59:14;;;;;;;10.88;3.63;;;;;;;;;;5051398;28;20036;-62
2021/10/29 13:01:49;;;;;;;8.43;3.65;;;;;;;;;;5052439;28;20017;-62
2021/10/29 13:04:20;;;;;;;10.45;3.70;;;;;;;;;;5051147;28;20055;-62
2021/10/29 13:06:49;;;;;;;10.77;3.92;;;;;;;;;;5050178;28;20025;-62
2021/10/29 13:09:15;;;;;;;11.75;3.90;;;;;;;;;;5052753;28;20104;-62
2021/10/29 13:11:44;;;;;;;8.50;3.67;;;;;;;;;;5052560;28;20111;-62
2021/10/29 13:14:12;;;;;;;7.35;3.25;;;;;;;;;;5050500;28;20021;-62
2021/10/29 13:16:38;;;;;;;;;;;;;;;;;;5051241;28;20380;-63
2021/10/29 13:22:37;;;;;;;8.32;3.72;;;;;;;;;;5050577;28;20033;-62
2021/10/29 13:27:25;;;;;;;7.78;3.95;;;;;;;;;;5052993;28;20477;-62
2021/10/29 13:35:33;;;;;;;10.85;3.50;;;;;;;;;;5050437;28;20040;-62
2021/10/29 13:54:20;;;;;;;10.13;3.97;;;;;;;;;;5052710;28;20025;-62
2021/10/29 13:57:02;;;;;;;8.43;3.90;;;;;;;;;;5052391;28;20024;-62
2021/10/29 14:02:34;;;;;;;;;;;;;;;;;;5049475;28;20036;-62
2021/10/29 14:29:45;;;;;;;15.73;7.30;;;;;;;;;;5050845;28;20044;-62
2021/10/29 14:32:39;;;;;;;12.65;5.78;;;;;;;;;;5047448;28;20033;-62
2021/10/29 14:35:14;;;;;;;11.13;5.30;;;;;;;;;;5049002;28;20036;-62
2021/10/29 14:41:09;;;;;;;9.80;5.03;;;;;;;;;;5029013;28;20057;-62
2021/10/29 15:31:40;;;;;;;13.68;6.63;;;;;;;;;;5042029;28;20454;-62
2021/10/29 15:42:31;;;;;;;22.38;14.80;;;;;;;;;;5047332;28;20060;-62
2021/10/29 15:45:06;;;;;;;21.65;11.80;;;;;;;;;;5043871;28;20067;-62
2021/10/29 15:47:48;;;;;;;16.35;8.68;;;;;;;;;;5047654;28;20028;-62
2021/10/29 15:50:17;;;;;;;16.63;8.88;;;;;;;;;;5049765;28;20021;-62
2021/10/29 15:52:50;;;;;;;35.78;12.23;;;;;;;;;;5048559;28;20453;-62
2021/10/29 15:55:23;;;;;;;24.83;9.35;;;;;;;;;;5027616;28;20029;-62
2021/10/29 15:58:28;;;;;;;20.80;9.77;;;;;;;;;;5045588;28;20041;-62
2021/10/29 16:03:30;;;;;;;23.50;11.32;;;;;;;;;;5051201;28;20041;-61
2021/10/29 16:17:28;;;;;;;22.25;10.00;;;;;;;;;;5040729;28;20055;-63
2021/10/29 16:19:47;;;;;;;15.75;7.88;;;;;;;;;;5040961;28;20036;-63
2021/10/29 16:22:32;;;;;;;18.45;9.20;;;;;;;;;;5047055;28;20457;-62
2021/10/29 16:27:27;;;;;;;22.85;11.25;;;;;;;;;;5048910;28;20032;-62
2021/10/29 16:29:53;;;;;;;17.83;9.05;;;;;;;;;;5042835;28;20021;-63
2021/10/29 16:32:27;;;;;;;20.20;10.90;;;;;;;;;;5050756;28;20036;-62
2021/10/29 16:34:53;;;;;;;22.80;11.77;;;;;;;;;;5053767;28;20025;-65
2021/10/29 16:37:19;;;;;;;21.67;10.27;;;;;;;;;;5051381;28;20527;-66
2021/10/29 16:39:45;;;;;;;24.58;11.93;;;;;;;;;;5050728;28;20036;-64
2021/10/29 16:42:11;;;;;;;23.67;12.30;;;;;;;;;;5065241;28;20025;-65
2021/10/29 16:44:37;;;;;;;23.23;13.68;;;;;;;;;;5055241;28;20040;-66
2021/10/29 16:47:03;;;;;;;15.88;9.40;;;;;;;;;;5053015;28;20362;-64
2021/10/29 16:49:29;;;;;;;16.98;8.73;;;;;;;;;;5056208;28;20028;-64
2021/10/29 16:51:55;;;;;;;15.77;8.65;;;;;;;;;;5048779;28;20024;-64
2021/10/29 16:54:21;;;;;;;25.55;10.57;;;;;;;;;;5062688;28;20037;-64
2021/10/29 16:56:47;;;;;;;17.98;11.75;;;;;;;;;;5051966;28;20020;-63
2021/10/29 16:59:13;;;;;;;18.52;10.65;;;;;;;;;;5050368;28;20024;-64
2021/10/29 17:01:39;;;;;;;50.88;35.50;;;;;;;;;;5046702;28;20029;-64
2021/10/29 17:04:05;;;;;;;57.33;39.35;;;;;;;;;;5030380;28;20043;-64
2021/10/29 17:06:30;;;;;;;45.35;28.73;;;;;;;;;;5048726;28;20017;-64
2021/10/29 17:08:57;;;;;;;38.55;21.77;;;;;;;;;;5050472;28;20030;-63
2021/10/29 17:11:23;;;;;;;35.35;16.73;;;;;;;;;;5050772;28;20059;-64
2021/10/29 17:13:49;;;;;;;20.60;10.90;;;;;;;;;;5047664;28;20489;-63
2021/10/29 17:16:15;;;;;;;25.05;13.90;;;;;;;;;;5050744;28;20102;-63
2021/10/29 17:18:41;;;;;;;29.27;14.95;;;;;;;;;;5048760;28;20114;-64
2021/10/29 17:21:07;;;;;;;31.50;17.60;;;;;;;;;;5051601;28;20021;-64
2021/10/29 17:23:34;;;;;;;22.58;13.07;;;;;;;;;;5051736;28;20025;-68
2021/10/29 17:26:00;;;;;;;25.02;12.13;;;;;;;;;;5050249;28;20480;-66
2021/10/29 17:28:26;;;;;;;32.40;14.88;;;;;;;;;;5049565;28;20021;-64
2021/10/29 17:30:52;;;;;;;29.65;14.55;;;;;;;;;;5050405;28;20128;-65
2021/10/29 17:33:18;;;;;;;28.40;13.65;;;;;;;;;;5050987;28;20040;-65
2021/10/29 17:35:44;;;;;;;29.77;14.77;;;;;;;;;;5051981;28;20033;-65
2021/10/29 17:38:10;;;;;;;27.58;15.55;;;;;;;;;;5049137;28;20082;-65
2021/10/29 17:40:36;;;;;;;26.77;12.82;;;;;;;;;;5051669;28;20384;-65
2021/10/29 17:43:03;;;;;;;21.00;10.77;;;;;;;;;;5049683;28;20060;-67
2021/10/29 17:45:29;;;;;;;19.48;10.90;;;;;;;;;;5049691;28;20021;-64
2021/10/29 17:47:55;;;;;;;17.42;10.95;;;;;;;;;;5051798;28;20044;-62
2021/10/29 17:50:21;;;;;;;22.77;10.63;;;;;;;;;;5050148;28;20325;-63
2021/10/29 17:52:47;;;;;;;20.20;9.57;;;;;;;;;;5050653;28;20069;-64
2021/10/29 17:55:14;;;;;;;18.77;10.45;;;;;;;;;;5050417;28;20051;-65
2021/10/29 17:57:40;;;;;;;20.13;10.50;;;;;;;;;;5050092;28;20031;-64
2021/10/29 18:00:07;;;;;;;19.17;10.35;;;;;;;;;;5052488;28;20149;-64
2021/10/29 18:02:33;;;;;;;19.20;9.93;;;;;;;;;;5051268;28;20473;-63
2021/10/29 18:04:59;;;;;;;20.92;11.63;;;;;;;;;;5049825;28;20029;-63
2021/10/29 18:07:26;;;;;;;24.23;13.40;;;;;;;;;;5047880;28;20028;-63
2021/10/29 18:09:53;;;;;;;19.60;11.30;;;;;;;;;;5049042;28;20025;-62
2021/10/29 18:12:19;;;;;;;24.02;11.68;;;;;;;;;;5049085;28;20033;-67
2021/10/29 18:14:45;;;;;;;23.83;12.07;;;;;;;;;;5050542;28;20124;-63
2021/10/29 18:17:13;;;;;;;20.05;10.38;;;;;;;;;;5049565;28;20107;-63
2021/10/29 18:19:40;;;;;;;40.38;25.80;;;;;;;;;;5049727;28;20704;-62
2021/10/29 18:22:06;;;;;;;36.00;20.42;;;;;;;;;;5046864;28;20061;-62
2021/10/29 18:24:33;;;;;;;22.27;12.05;;;;;;;;;;5049197;28;20404;-60
2021/10/29 18:26:59;;;;;;;16.65;9.10;;;;;;;;;;5050168;28;20090;-60
2021/10/29 18:29:25;;;;;;;20.73;11.05;;;;;;;;;;5049856;28;20031;-61
2021/10/29 18:31:51;;;;;;;20.92;10.63;;;;;;;;;;5049162;28;20506;-61
2021/10/29 18:34:17;;;;;;;21.75;11.88;;;;;;;;;;5048935;28;20816;-61
2021/10/29 18:36:43;;;;;;;23.85;13.90;;;;;;;;;;5049950;28;20071;-61
2021/10/29 18:39:09;;;;;;;22.33;11.80;;;;;;;;;;5051412;28;20029;-61
2021/10/29 18:41:35;;;;;;;18.33;10.27;;;;;;;;;;5050266;28;20028;-61
2021/10/29 18:44:02;;;;;;;23.33;12.68;;;;;;;;;;5048333;28;20190;-61
2021/10/29 18:46:28;;;;;;;28.08;15.30;;;;;;;;;;5048784;28;20025;-61
2021/10/29 18:48:54;;;;;;;29.38;17.48;;;;;;;;;;5049279;28;20056;-61
2021/10/29 18:51:21;;;;;;;34.60;18.17;;;;;;;;;;5049274;28;20042;-61
2021/10/29 18:53:47;;;;;;;28.73;17.52;;;;;;;;;;5049391;28;20036;-61
2021/10/29 18:56:13;;;;;;;33.65;18.00;;;;;;;;;;5047082;28;20408;-60
2021/10/29 18:58:40;;;;;;;32.67;18.02;;;;;;;;;;5050503;28;20458;-62
2021/10/29 19:01:07;;;;;;;27.83;16.05;;;;;;;;;;5048923;28;20021;-60
2021/10/29 19:03:33;;;;;;;26.55;13.57;;;;;;;;;;5048887;28;20044;-61
2021/10/29 19:05:59;;;;;;;32.63;14.20;;;;;;;;;;5055053;28;20040;-60
2021/10/29 19:08:25;;;;;;;28.40;14.60;;;;;;;;;;5047302;28;20056;-61
2021/10/29 19:10:52;;;;;;;24.88;13.05;;;;;;;;;;5048714;28;20032;-61
2021/10/29 19:13:18;;;;;;;23.92;11.50;;;;;;;;;;5049615;28;20041;-61
2021/10/29 19:15:44;;;;;;;21.08;11.55;;;;;;;;;;5048150;28;20401;-61
2021/10/29 19:18:10;;;;;;;21.92;12.57;;;;;;;;;;5050597;28;20052;-61
2021/10/29 19:20:36;;;;;;;21.00;10.77;;;;;;;;;;5049696;28;20025;-62
2021/10/29 19:23:03;;;;;;;23.50;13.23;;;;;;;;;;5047765;28;20029;-62